sensor_id;sensor_type;location;lat;lon;timestamp;temperature;humidity
17370;DHT22;8802;52.402;4.920;2023-12-14T00:00:07;9.50;99.90
17370;DHT22;8802;52.402;4.920;2023-12-14T00:02:34;9.50;99.90
17370;DHT22;8802;52.402;4.920;2023-12-14T00:05:01;9.50;99.90
17370;DHT22;8802;52.402;4.920;2023-12-14T00:07:29;9.40;99.90
17370;DHT22;8802;52.402;4.920;2023-12-14T00:09:56;9.40;99.90
17370;DHT22;8802;52.402;4.920;2023-12-14T00:12:23;9.30;99.90
17370;DHT22;8802;52.402;4.920;2023-12-14T00:14:50;9.40;99.90
17370;DHT22;8802;52.402;4.920;2023-12-14T00:17:17;9.40;99.90
17370;DHT22;8802;52.402;4.920;2023-12-14T00:19:44;9.50;99.90
17370;DHT22;8802;52.402;4.920;2023-12-14T00:22:10;9.40;99.90
17370;DHT22;8802;52.402;4.920;2023-12-14T00:24:39;9.40;99.90
17370;DHT22;8802;52.402;4.920;2023-12-14T00:27:05;9.50;99.90
17370;DHT22;8802;52.402;4.920;2023-12-14T00:29:32;9.50;99.90
17370;DHT22;8802;52.402;4.920;2023-12-14T00:31:59;9.50;99.90
17370;DHT22;8802;52.402;4.920;2023-12-14T00:34:26;9.40;99.90
17370;DHT22;8802;52.402;4.920;2023-12-14T00:36:53;9.40;99.90
17370;DHT22;8802;52.402;4.920;2023-12-14T00:39:20;9.40;99.90
17370;DHT22;8802;52.402;4.920;2023-12-14T00:41:48;9.40;99.90
17370;DHT22;8802;52.402;4.920;2023-12-14T00:44:15;9.40;99.90
17370;DHT22;8802;52.402;4.920;2023-12-14T00:46:41;9.40;99.90
17370;DHT22;8802;52.402;4.920;2023-12-14T00:49:08;9.40;99.90
17370;DHT22;8802;52.402;4.920;2023-12-14T00:51:35;9.40;99.90
17370;DHT22;8802;52.402;4.920;2023-12-14T00:54:03;9.40;99.90
17370;DHT22;8802;52.402;4.920;2023-12-14T00:56:30;9.40;99.90
17370;DHT22;8802;52.402;4.920;2023-12-14T00:58:58;9.50;99.90
17370;DHT22;8802;52.402;4.920;2023-12-14T01:01:25;9.40;99.90
17370;DHT22;8802;52.402;4.920;2023-12-14T01:03:52;9.40;99.90
17370;DHT22;8802;52.402;4.920;2023-12-14T01:06:18;9.40;99.90
17370;DHT22;8802;52.402;4.920;2023-12-14T01:08:45;9.40;99.90
17370;DHT22;8802;52.402;4.920;2023-12-14T01:11:13;9.50;99.90
17370;DHT22;8802;52.402;4.920;2023-12-14T01:13:40;9.50;99.90
17370;DHT22;8802;52.402;4.920;2023-12-14T01:16:08;9.50;99.90
17370;DHT22;8802;52.402;4.920;2023-12-14T01:18:35;9.50;99.90
17370;DHT22;8802;52.402;4.920;2023-12-14T01:21:02;9.50;99.90
17370;DHT22;8802;52.402;4.920;2023-12-14T01:23:30;9.50;99.90
17370;DHT22;8802;52.402;4.920;2023-12-14T01:25:57;9.50;99.90
17370;DHT22;8802;52.402;4.920;2023-12-14T01:28:23;9.50;99.90
17370;DHT22;8802;52.402;4.920;2023-12-14T01:30:50;9.60;99.90
17370;DHT22;8802;52.402;4.920;2023-12-14T01:33:18;9.60;99.90
17370;DHT22;8802;52.402;4.920;2023-12-14T01:35:45;9.50;99.90
17370;DHT22;8802;52.402;4.920;2023-12-14T01:38:12;9.50;99.90
17370;DHT22;8802;52.402;4.920;2023-12-14T01:40:39;9.50;99.90
17370;DHT22;8802;52.402;4.920;2023-12-14T01:43:07;9.50;99.90
17370;DHT22;8802;52.402;4.920;2023-12-14T01:45:34;9.50;99.90
17370;DHT22;8802;52.402;4.920;2023-12-14T01:48:01;9.50;99.90
17370;DHT22;8802;52.402;4.920;2023-12-14T01:50:29;9.50;99.90
17370;DHT22;8802;52.402;4.920;2023-12-14T01:52:56;9.50;99.90
17370;DHT22;8802;52.402;4.920;2023-12-14T01:55:23;9.50;99.90
17370;DHT22;8802;52.402;4.920;2023-12-14T01:57:51;9.50;99.90
17370;DHT22;8802;52.402;4.920;2023-12-14T02:00:23;9.50;99.90
17370;DHT22;8802;52.402;4.920;2023-12-14T02:02:51;9.50;99.90
17370;DHT22;8802;52.402;4.920;2023-12-14T02:05:18;9.50;99.90
17370;DHT22;8802;52.402;4.920;2023-12-14T02:07:46;9.50;99.90
17370;DHT22;8802;52.402;4.920;2023-12-14T02:10:15;9.50;99.90
17370;DHT22;8802;52.402;4.920;2023-12-14T02:12:42;9.50;99.90
17370;DHT22;8802;52.402;4.920;2023-12-14T02:15:09;9.50;99.90
17370;DHT22;8802;52.402;4.920;2023-12-14T02:17:36;9.50;99.90
17370;DHT22;8802;52.402;4.920;2023-12-14T02:20:04;9.50;99.90
17370;DHT22;8802;52.402;4.920;2023-12-14T02:22:40;9.60;99.90
17370;DHT22;8802;52.402;4.920;2023-12-14T02:25:14;9.60;99.90
17370;DHT22;8802;52.402;4.920;2023-12-14T02:27:41;9.60;99.90
17370;DHT22;8802;52.402;4.920;2023-12-14T02:30:08;9.50;99.90
17370;DHT22;8802;52.402;4.920;2023-12-14T02:32:35;9.50;99.90
17370;DHT22;8802;52.402;4.920;2023-12-14T02:35:02;9.60;99.90
17370;DHT22;8802;52.402;4.920;2023-12-14T02:37:29;9.60;99.90
17370;DHT22;8802;52.402;4.920;2023-12-14T02:39:59;9.50;99.90
17370;DHT22;8802;52.402;4.920;2023-12-14T02:42:26;9.60;99.90
17370;DHT22;8802;52.402;4.920;2023-12-14T02:44:53;9.50;99.90
17370;DHT22;8802;52.402;4.920;2023-12-14T02:47:20;9.60;99.90
17370;DHT22;8802;52.402;4.920;2023-12-14T02:49:48;9.60;99.90
17370;DHT22;8802;52.402;4.920;2023-12-14T02:52:15;9.60;99.90
17370;DHT22;8802;52.402;4.920;2023-12-14T02:54:42;9.60;99.90
17370;DHT22;8802;52.402;4.920;2023-12-14T02:57:10;9.60;99.90
17370;DHT22;8802;52.402;4.920;2023-12-14T02:59:37;9.60;99.90
17370;DHT22;8802;52.402;4.920;2023-12-14T03:02:04;9.60;99.90
17370;DHT22;8802;52.402;4.920;2023-12-14T03:04:31;9.60;99.90
17370;DHT22;8802;52.402;4.920;2023-12-14T03:06:58;9.60;99.90
17370;DHT22;8802;52.402;4.920;2023-12-14T03:09:27;9.60;99.90
17370;DHT22;8802;52.402;4.920;2023-12-14T03:11:54;9.60;99.90
17370;DHT22;8802;52.402;4.920;2023-12-14T03:14:22;9.60;99.90
17370;DHT22;8802;52.402;4.920;2023-12-14T03:16:49;9.50;99.90
17370;DHT22;8802;52.402;4.920;2023-12-14T03:19:16;9.50;99.90
17370;DHT22;8802;52.402;4.920;2023-12-14T03:21:43;9.50;99.90
17370;DHT22;8802;52.402;4.920;2023-12-14T03:24:10;9.50;99.90
17370;DHT22;8802;52.402;4.920;2023-12-14T03:26:37;9.50;99.90
17370;DHT22;8802;52.402;4.920;2023-12-14T03:29:03;9.50;99.90
17370;DHT22;8802;52.402;4.920;2023-12-14T03:31:32;9.40;99.90
17370;DHT22;8802;52.402;4.920;2023-12-14T03:33:59;9.40;99.90
17370;DHT22;8802;52.402;4.920;2023-12-14T03:36:26;9.40;99.90
17370;DHT22;8802;52.402;4.920;2023-12-14T03:38:53;9.40;99.90
17370;DHT22;8802;52.402;4.920;2023-12-14T03:41:19;9.40;99.90
17370;DHT22;8802;52.402;4.920;2023-12-14T03:43:46;9.30;99.90
17370;DHT22;8802;52.402;4.920;2023-12-14T03:46:13;9.30;99.90
17370;DHT22;8802;52.402;4.920;2023-12-14T03:48:41;9.30;99.90
17370;DHT22;8802;52.402;4.920;2023-12-14T03:51:08;9.30;99.90
17370;DHT22;8802;52.402;4.920;2023-12-14T03:53:35;9.20;99.90
17370;DHT22;8802;52.402;4.920;2023-12-14T03:56:02;9.20;99.90
17370;DHT22;8802;52.402;4.920;2023-12-14T03:58:29;9.20;99.90
17370;DHT22;8802;52.402;4.920;2023-12-14T04:00:56;9.20;99.90
17370;DHT22;8802;52.402;4.920;2023-12-14T04:03:23;9.20;99.90
17370;DHT22;8802;52.402;4.920;2023-12-14T04:05:51;9.20;99.90
17370;DHT22;8802;52.402;4.920;2023-12-14T04:08:18;9.20;99.90
17370;DHT22;8802;52.402;4.920;2023-12-14T04:10:45;9.20;99.90
17370;DHT22;8802;52.402;4.920;2023-12-14T04:13:12;9.10;99.90
17370;DHT22;8802;52.402;4.920;2023-12-14T04:15:39;9.20;99.90
17370;DHT22;8802;52.402;4.920;2023-12-14T04:18:07;9.10;99.90
17370;DHT22;8802;52.402;4.920;2023-12-14T04:20:34;9.10;99.90
17370;DHT22;8802;52.402;4.920;2023-12-14T04:23:02;9.10;99.90
17370;DHT22;8802;52.402;4.920;2023-12-14T04:25:29;9.10;99.90
17370;DHT22;8802;52.402;4.920;2023-12-14T04:27:56;9.10;99.90
17370;DHT22;8802;52.402;4.920;2023-12-14T04:30:22;9.00;99.90
17370;DHT22;8802;52.402;4.920;2023-12-14T04:32:49;9.00;99.90
17370;DHT22;8802;52.402;4.920;2023-12-14T04:35:17;9.00;99.90
17370;DHT22;8802;52.402;4.920;2023-12-14T04:37:44;8.90;99.90
17370;DHT22;8802;52.402;4.920;2023-12-14T04:40:12;8.90;99.90
17370;DHT22;8802;52.402;4.920;2023-12-14T04:42:39;8.90;99.90
17370;DHT22;8802;52.402;4.920;2023-12-14T04:45:06;8.90;99.90
17370;DHT22;8802;52.402;4.920;2023-12-14T04:47:34;8.90;99.90
17370;DHT22;8802;52.402;4.920;2023-12-14T04:50:01;9.00;99.90
17370;DHT22;8802;52.402;4.920;2023-12-14T04:52:28;8.90;99.90
17370;DHT22;8802;52.402;4.920;2023-12-14T04:54:55;9.00;99.90
17370;DHT22;8802;52.402;4.920;2023-12-14T04:57:23;8.90;99.90
17370;DHT22;8802;52.402;4.920;2023-12-14T04:59:50;8.90;99.90
17370;DHT22;8802;52.402;4.920;2023-12-14T05:02:16;8.90;99.90
17370;DHT22;8802;52.402;4.920;2023-12-14T05:04:43;8.90;99.90
17370;DHT22;8802;52.402;4.920;2023-12-14T05:07:10;8.90;99.90
17370;DHT22;8802;52.402;4.920;2023-12-14T05:09:37;9.00;99.90
17370;DHT22;8802;52.402;4.920;2023-12-14T05:12:05;9.00;99.90
17370;DHT22;8802;52.402;4.920;2023-12-14T05:14:33;9.00;99.90
17370;DHT22;8802;52.402;4.920;2023-12-14T05:17:00;8.90;99.90
17370;DHT22;8802;52.402;4.920;2023-12-14T05:19:26;9.00;99.90
17370;DHT22;8802;52.402;4.920;2023-12-14T05:21:53;9.00;99.90
17370;DHT22;8802;52.402;4.920;2023-12-14T05:24:20;9.10;99.90
17370;DHT22;8802;52.402;4.920;2023-12-14T05:26:47;9.10;99.90
17370;DHT22;8802;52.402;4.920;2023-12-14T05:29:14;9.00;99.90
17370;DHT22;8802;52.402;4.920;2023-12-14T05:31:44;9.00;99.90
17370;DHT22;8802;52.402;4.920;2023-12-14T05:34:10;9.00;99.90
17370;DHT22;8802;52.402;4.920;2023-12-14T05:36:37;9.00;99.90
17370;DHT22;8802;52.402;4.920;2023-12-14T05:39:04;9.00;99.90
17370;DHT22;8802;52.402;4.920;2023-12-14T05:41:31;9.00;99.90
17370;DHT22;8802;52.402;4.920;2023-12-14T05:43:58;9.00;99.90
17370;DHT22;8802;52.402;4.920;2023-12-14T05:46:24;8.90;99.90
17370;DHT22;8802;52.402;4.920;2023-12-14T05:48:53;8.90;99.90
17370;DHT22;8802;52.402;4.920;2023-12-14T05:51:29;9.00;99.90
17370;DHT22;8802;52.402;4.920;2023-12-14T05:53:56;8.90;99.90
17370;DHT22;8802;52.402;4.920;2023-12-14T05:56:23;8.90;99.90
17370;DHT22;8802;52.402;4.920;2023-12-14T05:58:50;9.00;99.90
17370;DHT22;8802;52.402;4.920;2023-12-14T06:01:17;9.00;99.90
17370;DHT22;8802;52.402;4.920;2023-12-14T06:03:44;9.00;99.90
17370;DHT22;8802;52.402;4.920;2023-12-14T06:06:12;8.90;99.90
17370;DHT22;8802;52.402;4.920;2023-12-14T06:08:40;8.90;99.90
17370;DHT22;8802;52.402;4.920;2023-12-14T06:11:07;9.00;99.90
17370;DHT22;8802;52.402;4.920;2023-12-14T06:13:34;8.90;99.90
17370;DHT22;8802;52.402;4.920;2023-12-14T06:16:01;9.00;99.90
17370;DHT22;8802;52.402;4.920;2023-12-14T06:18:28;9.00;99.90
17370;DHT22;8802;52.402;4.920;2023-12-14T06:20:55;9.00;99.90
17370;DHT22;8802;52.402;4.920;2023-12-14T06:23:23;9.00;99.90
17370;DHT22;8802;52.402;4.920;2023-12-14T06:25:50;9.00;99.90
17370;DHT22;8802;52.402;4.920;2023-12-14T06:28:17;9.10;99.90
17370;DHT22;8802;52.402;4.920;2023-12-14T06:30:44;9.00;99.90
17370;DHT22;8802;52.402;4.920;2023-12-14T06:33:11;9.10;99.90
17370;DHT22;8802;52.402;4.920;2023-12-14T06:35:38;9.10;99.90
17370;DHT22;8802;52.402;4.920;2023-12-14T06:38:05;9.10;99.90
17370;DHT22;8802;52.402;4.920;2023-12-14T06:40:33;9.10;99.90
17370;DHT22;8802;52.402;4.920;2023-12-14T06:43:00;9.10;99.90
17370;DHT22;8802;52.402;4.920;2023-12-14T06:45:27;9.10;99.90
17370;DHT22;8802;52.402;4.920;2023-12-14T06:47:53;9.10;99.90
17370;DHT22;8802;52.402;4.920;2023-12-14T06:50:20;9.10;99.90
17370;DHT22;8802;52.402;4.920;2023-12-14T06:52:47;9.30;99.90
17370;DHT22;8802;52.402;4.920;2023-12-14T06:55:14;9.10;99.90
17370;DHT22;8802;52.402;4.920;2023-12-14T06:57:44;9.10;99.90
17370;DHT22;8802;52.402;4.920;2023-12-14T07:00:13;9.10;99.90
17370;DHT22;8802;52.402;4.920;2023-12-14T07:02:40;9.10;99.90
17370;DHT22;8802;52.402;4.920;2023-12-14T07:05:07;9.10;99.90
17370;DHT22;8802;52.402;4.920;2023-12-14T07:07:34;9.10;99.90
17370;DHT22;8802;52.402;4.920;2023-12-14T07:10:01;9.10;99.90
17370;DHT22;8802;52.402;4.920;2023-12-14T07:12:27;9.10;99.90
17370;DHT22;8802;52.402;4.920;2023-12-14T07:14:56;9.10;99.90
17370;DHT22;8802;52.402;4.920;2023-12-14T07:17:23;9.10;99.90
17370;DHT22;8802;52.402;4.920;2023-12-14T07:19:51;9.10;99.90
17370;DHT22;8802;52.402;4.920;2023-12-14T07:22:18;9.10;99.90
17370;DHT22;8802;52.402;4.920;2023-12-14T07:24:45;9.20;99.90
17370;DHT22;8802;52.402;4.920;2023-12-14T07:27:11;9.10;99.90
17370;DHT22;8802;52.402;4.920;2023-12-14T07:29:38;9.20;99.90
17370;DHT22;8802;52.402;4.920;2023-12-14T07:32:07;9.20;99.90
17370;DHT22;8802;52.402;4.920;2023-12-14T07:34:33;9.20;99.90
17370;DHT22;8802;52.402;4.920;2023-12-14T07:37:00;9.20;99.90
17370;DHT22;8802;52.402;4.920;2023-12-14T07:39:27;9.20;99.90
17370;DHT22;8802;52.402;4.920;2023-12-14T07:41:54;9.40;99.90
17370;DHT22;8802;52.402;4.920;2023-12-14T07:44:21;9.30;99.90
17370;DHT22;8802;52.402;4.920;2023-12-14T07:46:50;9.30;99.90
17370;DHT22;8802;52.402;4.920;2023-12-14T07:49:18;9.30;99.90
17370;DHT22;8802;52.402;4.920;2023-12-14T07:51:48;9.30;99.90
17370;DHT22;8802;52.402;4.920;2023-12-14T07:54:15;9.30;99.90
17370;DHT22;8802;52.402;4.920;2023-12-14T07:56:42;9.40;99.90
17370;DHT22;8802;52.402;4.920;2023-12-14T07:59:09;9.40;99.90
17370;DHT22;8802;52.402;4.920;2023-12-14T08:01:36;9.40;99.90
17370;DHT22;8802;52.402;4.920;2023-12-14T08:04:03;9.40;99.90
17370;DHT22;8802;52.402;4.920;2023-12-14T08:06:31;9.40;99.90
17370;DHT22;8802;52.402;4.920;2023-12-14T08:08:58;9.40;99.90
17370;DHT22;8802;52.402;4.920;2023-12-14T08:11:25;9.50;99.90
17370;DHT22;8802;52.402;4.920;2023-12-14T08:13:52;9.50;99.90
17370;DHT22;8802;52.402;4.920;2023-12-14T08:16:19;9.50;99.90
17370;DHT22;8802;52.402;4.920;2023-12-14T08:18:46;9.50;99.90
17370;DHT22;8802;52.402;4.920;2023-12-14T08:21:14;9.50;99.90
17370;DHT22;8802;52.402;4.920;2023-12-14T08:23:41;9.50;99.90
17370;DHT22;8802;52.402;4.920;2023-12-14T08:26:08;9.50;99.90
17370;DHT22;8802;52.402;4.920;2023-12-14T08:28:35;9.50;99.90
17370;DHT22;8802;52.402;4.920;2023-12-14T08:31:02;9.50;99.90
17370;DHT22;8802;52.402;4.920;2023-12-14T08:33:30;9.50;99.90
17370;DHT22;8802;52.402;4.920;2023-12-14T08:35:57;9.50;99.90
17370;DHT22;8802;52.402;4.920;2023-12-14T08:38:24;9.50;99.90
17370;DHT22;8802;52.402;4.920;2023-12-14T08:40:52;9.60;99.90
17370;DHT22;8802;52.402;4.920;2023-12-14T08:43:19;9.60;99.90
17370;DHT22;8802;52.402;4.920;2023-12-14T08:45:46;9.60;99.90
17370;DHT22;8802;52.402;4.920;2023-12-14T08:48:14;9.60;99.90
17370;DHT22;8802;52.402;4.920;2023-12-14T08:50:41;9.60;99.90
17370;DHT22;8802;52.402;4.920;2023-12-14T08:53:08;9.60;99.90
17370;DHT22;8802;52.402;4.920;2023-12-14T08:55:35;9.60;99.90
17370;DHT22;8802;52.402;4.920;2023-12-14T08:58:03;9.70;99.90
17370;DHT22;8802;52.402;4.920;2023-12-14T09:00:30;9.70;99.90
17370;DHT22;8802;52.402;4.920;2023-12-14T09:02:56;9.70;99.90
17370;DHT22;8802;52.402;4.920;2023-12-14T09:05:24;9.80;99.90
17370;DHT22;8802;52.402;4.920;2023-12-14T09:07:52;9.80;99.90
17370;DHT22;8802;52.402;4.920;2023-12-14T09:10:21;9.80;99.90
17370;DHT22;8802;52.402;4.920;2023-12-14T09:12:48;9.90;99.90
17370;DHT22;8802;52.402;4.920;2023-12-14T09:15:17;9.90;99.90
17370;DHT22;8802;52.402;4.920;2023-12-14T09:17:44;9.90;99.90
17370;DHT22;8802;52.402;4.920;2023-12-14T09:20:11;10.00;99.90
17370;DHT22;8802;52.402;4.920;2023-12-14T09:22:39;10.00;99.90
17370;DHT22;8802;52.402;4.920;2023-12-14T09:25:07;10.10;99.90
17370;DHT22;8802;52.402;4.920;2023-12-14T09:27:34;10.10;99.90
17370;DHT22;8802;52.402;4.920;2023-12-14T09:30:01;10.10;99.90
17370;DHT22;8802;52.402;4.920;2023-12-14T09:32:30;10.10;99.90
17370;DHT22;8802;52.402;4.920;2023-12-14T09:34:57;10.20;99.90
17370;DHT22;8802;52.402;4.920;2023-12-14T09:37:23;10.20;99.90
17370;DHT22;8802;52.402;4.920;2023-12-14T09:39:50;10.30;99.90
17370;DHT22;8802;52.402;4.920;2023-12-14T09:42:19;10.30;99.90
17370;DHT22;8802;52.402;4.920;2023-12-14T09:44:47;10.30;99.90
17370;DHT22;8802;52.402;4.920;2023-12-14T09:47:14;10.30;99.90
17370;DHT22;8802;52.402;4.920;2023-12-14T09:49:43;10.30;99.90
17370;DHT22;8802;52.402;4.920;2023-12-14T09:52:11;10.30;99.90
17370;DHT22;8802;52.402;4.920;2023-12-14T09:54:37;10.40;99.90
17370;DHT22;8802;52.402;4.920;2023-12-14T09:57:04;10.40;99.90
17370;DHT22;8802;52.402;4.920;2023-12-14T09:59:32;10.40;99.90
17370;DHT22;8802;52.402;4.920;2023-12-14T10:02:09;10.40;99.90
17370;DHT22;8802;52.402;4.920;2023-12-14T10:04:37;10.40;99.90
17370;DHT22;8802;52.402;4.920;2023-12-14T10:07:05;10.50;99.90
17370;DHT22;8802;52.402;4.920;2023-12-14T10:09:33;10.50;99.90
17370;DHT22;8802;52.402;4.920;2023-12-14T10:12:05;10.50;99.90
17370;DHT22;8802;52.402;4.920;2023-12-14T10:14:32;10.50;99.90
17370;DHT22;8802;52.402;4.920;2023-12-14T10:17:14;10.60;99.90
17370;DHT22;8802;52.402;4.920;2023-12-14T10:19:42;10.60;99.90
17370;DHT22;8802;52.402;4.920;2023-12-14T10:22:11;10.60;99.90
17370;DHT22;8802;52.402;4.920;2023-12-14T10:24:43;10.60;99.90
17370;DHT22;8802;52.402;4.920;2023-12-14T10:27:10;10.70;99.90
17370;DHT22;8802;52.402;4.920;2023-12-14T10:29:37;10.70;99.90
17370;DHT22;8802;52.402;4.920;2023-12-14T10:32:06;10.70;99.90
17370;DHT22;8802;52.402;4.920;2023-12-14T10:34:34;10.70;99.90
17370;DHT22;8802;52.402;4.920;2023-12-14T10:37:02;10.80;99.90
17370;DHT22;8802;52.402;4.920;2023-12-14T10:39:34;10.80;99.90
17370;DHT22;8802;52.402;4.920;2023-12-14T10:42:03;10.80;99.90
17370;DHT22;8802;52.402;4.920;2023-12-14T10:44:35;10.90;99.90
17370;DHT22;8802;52.402;4.920;2023-12-14T10:47:03;10.90;99.90
17370;DHT22;8802;52.402;4.920;2023-12-14T10:49:31;10.90;99.90
17370;DHT22;8802;52.402;4.920;2023-12-14T10:52:00;11.00;99.90
17370;DHT22;8802;52.402;4.920;2023-12-14T10:54:31;11.00;99.90
17370;DHT22;8802;52.402;4.920;2023-12-14T10:57:00;11.00;99.90
17370;DHT22;8802;52.402;4.920;2023-12-14T10:59:31;11.00;99.90
17370;DHT22;8802;52.402;4.920;2023-12-14T11:01:57;11.10;99.90
17370;DHT22;8802;52.402;4.920;2023-12-14T11:04:26;11.10;99.90
17370;DHT22;8802;52.402;4.920;2023-12-14T11:06:53;11.10;99.90
17370;DHT22;8802;52.402;4.920;2023-12-14T11:09:22;11.20;99.90
17370;DHT22;8802;52.402;4.920;2023-12-14T11:11:57;11.20;99.90
17370;DHT22;8802;52.402;4.920;2023-12-14T11:14:26;11.30;99.90
17370;DHT22;8802;52.402;4.920;2023-12-14T11:16:54;11.30;99.90
17370;DHT22;8802;52.402;4.920;2023-12-14T11:19:29;11.30;99.90
17370;DHT22;8802;52.402;4.920;2023-12-14T11:22:09;11.30;99.90
17370;DHT22;8802;52.402;4.920;2023-12-14T11:24:41;11.40;99.90
17370;DHT22;8802;52.402;4.920;2023-12-14T11:27:11;11.40;99.90
17370;DHT22;8802;52.402;4.920;2023-12-14T11:29:39;11.50;99.90
17370;DHT22;8802;52.402;4.920;2023-12-14T11:32:07;11.50;99.90
17370;DHT22;8802;52.402;4.920;2023-12-14T11:34:34;11.60;99.90
17370;DHT22;8802;52.402;4.920;2023-12-14T11:37:01;11.50;99.90
17370;DHT22;8802;52.402;4.920;2023-12-14T11:39:30;11.60;99.90
17370;DHT22;8802;52.402;4.920;2023-12-14T11:42:01;11.70;99.90
17370;DHT22;8802;52.402;4.920;2023-12-14T11:44:29;11.70;99.90
17370;DHT22;8802;52.402;4.920;2023-12-14T11:46:57;11.70;99.90
17370;DHT22;8802;52.402;4.920;2023-12-14T11:49:24;11.70;99.90
17370;DHT22;8802;52.402;4.920;2023-12-14T11:51:52;11.80;99.90
17370;DHT22;8802;52.402;4.920;2023-12-14T11:54:19;11.70;99.90
17370;DHT22;8802;52.402;4.920;2023-12-14T11:56:47;11.80;99.90
17370;DHT22;8802;52.402;4.920;2023-12-14T11:59:15;11.80;99.90
17370;DHT22;8802;52.402;4.920;2023-12-14T12:01:55;11.70;99.90
17370;DHT22;8802;52.402;4.920;2023-12-14T12:04:23;11.80;99.90
17370;DHT22;8802;52.402;4.920;2023-12-14T12:06:55;11.70;99.90
17370;DHT22;8802;52.402;4.920;2023-12-14T12:09:35;11.80;99.90
17370;DHT22;8802;52.402;4.920;2023-12-14T12:12:04;11.70;99.90
17370;DHT22;8802;52.402;4.920;2023-12-14T12:14:31;11.80;99.90
17370;DHT22;8802;52.402;4.920;2023-12-14T12:16:59;11.80;99.90
17370;DHT22;8802;52.402;4.920;2023-12-14T12:19:26;11.80;99.90
17370;DHT22;8802;52.402;4.920;2023-12-14T12:21:53;11.80;99.90
17370;DHT22;8802;52.402;4.920;2023-12-14T12:24:20;11.80;99.90
17370;DHT22;8802;52.402;4.920;2023-12-14T12:26:47;11.70;99.90
17370;DHT22;8802;52.402;4.920;2023-12-14T12:29:14;11.80;99.90
17370;DHT22;8802;52.402;4.920;2023-12-14T12:31:41;11.80;99.90
17370;DHT22;8802;52.402;4.920;2023-12-14T12:34:09;11.80;99.90
17370;DHT22;8802;52.402;4.920;2023-12-14T12:36:36;11.80;99.90
17370;DHT22;8802;52.402;4.920;2023-12-14T12:39:03;11.80;99.90
17370;DHT22;8802;52.402;4.920;2023-12-14T12:41:31;11.80;99.90
17370;DHT22;8802;52.402;4.920;2023-12-14T12:43:58;11.70;99.90
17370;DHT22;8802;52.402;4.920;2023-12-14T12:46:31;11.70;99.90
17370;DHT22;8802;52.402;4.920;2023-12-14T12:48:58;11.70;99.90
17370;DHT22;8802;52.402;4.920;2023-12-14T12:51:27;11.70;99.90
17370;DHT22;8802;52.402;4.920;2023-12-14T12:53:54;11.70;99.90
17370;DHT22;8802;52.402;4.920;2023-12-14T12:56:20;11.60;99.90
17370;DHT22;8802;52.402;4.920;2023-12-14T12:58:47;11.60;99.90
17370;DHT22;8802;52.402;4.920;2023-12-14T13:01:15;11.60;99.90
17370;DHT22;8802;52.402;4.920;2023-12-14T13:03:42;11.60;99.90
17370;DHT22;8802;52.402;4.920;2023-12-14T13:06:09;11.60;99.90
17370;DHT22;8802;52.402;4.920;2023-12-14T13:08:37;11.60;99.90
17370;DHT22;8802;52.402;4.920;2023-12-14T13:11:04;11.50;99.90
17370;DHT22;8802;52.402;4.920;2023-12-14T13:13:31;11.60;99.90
17370;DHT22;8802;52.402;4.920;2023-12-14T13:15:58;11.50;99.90
17370;DHT22;8802;52.402;4.920;2023-12-14T13:18:25;11.50;99.90
17370;DHT22;8802;52.402;4.920;2023-12-14T13:20:51;11.50;99.90
17370;DHT22;8802;52.402;4.920;2023-12-14T13:23:18;11.60;99.90
17370;DHT22;8802;52.402;4.920;2023-12-14T13:25:46;11.50;99.90
17370;DHT22;8802;52.402;4.920;2023-12-14T13:28:13;11.50;99.90
17370;DHT22;8802;52.402;4.920;2023-12-14T13:30:41;11.50;99.90
17370;DHT22;8802;52.402;4.920;2023-12-14T13:33:08;11.50;99.90
17370;DHT22;8802;52.402;4.920;2023-12-14T13:35:37;11.50;99.90
17370;DHT22;8802;52.402;4.920;2023-12-14T13:38:04;11.50;99.90
17370;DHT22;8802;52.402;4.920;2023-12-14T13:40:31;11.50;99.90
17370;DHT22;8802;52.402;4.920;2023-12-14T13:42:59;11.50;99.90
17370;DHT22;8802;52.402;4.920;2023-12-14T13:45:29;11.50;99.90
17370;DHT22;8802;52.402;4.920;2023-12-14T13:47:56;11.50;99.90
17370;DHT22;8802;52.402;4.920;2023-12-14T13:50:24;11.50;99.90
17370;DHT22;8802;52.402;4.920;2023-12-14T13:52:52;11.50;99.90
17370;DHT22;8802;52.402;4.920;2023-12-14T13:55:19;11.50;99.90
17370;DHT22;8802;52.402;4.920;2023-12-14T13:57:46;11.50;99.90
17370;DHT22;8802;52.402;4.920;2023-12-14T14:00:16;11.50;99.90
17370;DHT22;8802;52.402;4.920;2023-12-14T14:02:44;11.40;99.90
17370;DHT22;8802;52.402;4.920;2023-12-14T14:05:11;11.40;99.90
17370;DHT22;8802;52.402;4.920;2023-12-14T14:07:38;11.40;99.90
17370;DHT22;8802;52.402;4.920;2023-12-14T14:10:06;11.40;99.90
17370;DHT22;8802;52.402;4.920;2023-12-14T14:12:33;11.40;99.90
17370;DHT22;8802;52.402;4.920;2023-12-14T14:15:00;11.40;99.90
17370;DHT22;8802;52.402;4.920;2023-12-14T14:17:28;11.40;99.90
17370;DHT22;8802;52.402;4.920;2023-12-14T14:19:55;11.40;99.90
17370;DHT22;8802;52.402;4.920;2023-12-14T14:22:22;11.30;99.90
17370;DHT22;8802;52.402;4.920;2023-12-14T14:24:50;11.40;99.90
17370;DHT22;8802;52.402;4.920;2023-12-14T14:27:17;11.40;99.90
17370;DHT22;8802;52.402;4.920;2023-12-14T14:29:43;11.40;99.90
17370;DHT22;8802;52.402;4.920;2023-12-14T14:32:10;11.40;99.90
17370;DHT22;8802;52.402;4.920;2023-12-14T14:34:39;11.30;99.90
17370;DHT22;8802;52.402;4.920;2023-12-14T14:37:06;11.30;99.90
17370;DHT22;8802;52.402;4.920;2023-12-14T14:39:33;11.30;99.90
17370;DHT22;8802;52.402;4.920;2023-12-14T14:42:00;11.30;99.90
17370;DHT22;8802;52.402;4.920;2023-12-14T14:44:27;11.30;99.90
17370;DHT22;8802;52.402;4.920;2023-12-14T14:46:53;11.30;99.90
17370;DHT22;8802;52.402;4.920;2023-12-14T14:49:21;11.30;99.90
17370;DHT22;8802;52.402;4.920;2023-12-14T14:51:49;11.30;99.90
17370;DHT22;8802;52.402;4.920;2023-12-14T14:54:16;11.30;99.90
17370;DHT22;8802;52.402;4.920;2023-12-14T14:56:43;11.30;99.90
17370;DHT22;8802;52.402;4.920;2023-12-14T14:59:10;11.30;99.90
17370;DHT22;8802;52.402;4.920;2023-12-14T15:01:38;11.30;99.90
17370;DHT22;8802;52.402;4.920;2023-12-14T15:04:05;11.30;99.90
17370;DHT22;8802;52.402;4.920;2023-12-14T15:06:31;11.40;99.90
17370;DHT22;8802;52.402;4.920;2023-12-14T15:09:00;11.30;99.90
17370;DHT22;8802;52.402;4.920;2023-12-14T15:11:27;11.50;99.90
17370;DHT22;8802;52.402;4.920;2023-12-14T15:13:54;11.30;99.90
17370;DHT22;8802;52.402;4.920;2023-12-14T15:16:21;11.30;99.90
17370;DHT22;8802;52.402;4.920;2023-12-14T15:18:50;11.30;99.90
17370;DHT22;8802;52.402;4.920;2023-12-14T15:21:17;11.30;99.90
17370;DHT22;8802;52.402;4.920;2023-12-14T15:23:44;11.40;99.90
17370;DHT22;8802;52.402;4.920;2023-12-14T15:26:14;11.30;99.90
17370;DHT22;8802;52.402;4.920;2023-12-14T15:28:42;11.30;99.90
17370;DHT22;8802;52.402;4.920;2023-12-14T15:31:09;11.30;99.90
17370;DHT22;8802;52.402;4.920;2023-12-14T15:33:37;11.30;99.90
17370;DHT22;8802;52.402;4.920;2023-12-14T15:36:04;11.30;99.90
17370;DHT22;8802;52.402;4.920;2023-12-14T15:38:31;11.30;99.90
17370;DHT22;8802;52.402;4.920;2023-12-14T15:40:58;11.30;99.90
17370;DHT22;8802;52.402;4.920;2023-12-14T15:43:26;11.30;99.90
17370;DHT22;8802;52.402;4.920;2023-12-14T15:45:53;11.30;99.90
17370;DHT22;8802;52.402;4.920;2023-12-14T15:48:20;11.30;99.90
17370;DHT22;8802;52.402;4.920;2023-12-14T15:50:47;11.30;99.90
17370;DHT22;8802;52.402;4.920;2023-12-14T15:53:14;11.30;99.90
17370;DHT22;8802;52.402;4.920;2023-12-14T15:55:41;11.30;99.90